Stations météo

réclame
Mon MeteoGroup
Polientes, Espagne (8033): Température de l'air & dewpoint: 15.10.2017 10:00:00 - 21.10.2017 10:00:00 (CEST)Polientes, Espagne (8033): Vitesse du vent & gusts: 15.10.2017 10:00:00 - 21.10.2017 10:00:00 (CEST)Polientes, Espagne (8033): Direction du vent: 15.10.2017 10:00:00 - 21.10.2017 10:00:00 (CEST)Polientes, Espagne (8033): Quantités de précipitations: 15.10.2017 10:00:00 - 21.10.2017 10:00:00 (CEST)
Date & Time tt [°C] td [°C] ff [km/h] ff [knt] fx [km/h] fx [knt] dd rr [mm]
21.10.2017 10:00:00 - - - - - - - -
21.10.2017 09:00:00 - - - - - - - -
21.10.2017 08:00:00 - - - - - - - -
21.10.2017 07:00:00 - - - - - - - -
21.10.2017 06:00:00 - - - - - - - -
21.10.2017 05:00:00 - - - - - - - -
21.10.2017 04:00:00 - - - - - - - -
21.10.2017 03:00:00 - - - - - - - -
21.10.2017 02:00:00 - - - - - - - -
21.10.2017 01:00:00 - - - - - - - -
21.10.2017 00:00:00 - - - - - - - -
20.10.2017 23:00:00 - - - - - - - -
20.10.2017 22:00:00 - - - - - - - -
20.10.2017 21:00:00 - - - - - - - -
20.10.2017 20:00:00 - - - - - - - -
20.10.2017 19:00:00 - - - - - - - -
20.10.2017 18:00:00 - - - - - - - -
20.10.2017 17:00:00 - - - - - - - -
20.10.2017 16:00:00 - - - - - - - -
20.10.2017 15:00:00 18,5 6,4 16 9 40 22 SW 0,0
20.10.2017 14:00:00 17,7 7,7 16 9 35 19 SSW -
20.10.2017 13:00:00 16,7 8,4 18 10 33 18 SW 0,0
20.10.2017 12:00:00 14,4 9,0 13 7 31 17 SW 0,0
20.10.2017 11:00:00 13,3 9,6 15 8 29 15 SW 0,0
20.10.2017 10:00:00 13,0 9,7 8 5 26 14 SW 0,0
20.10.2017 09:00:00 12,3 9,3 9 5 17 9 SW 0,0
20.10.2017 08:00:00 11,9 9,4 5 3 24 13 SSW -
20.10.2017 07:00:00 11,9 9,3 8 5 18 10 SW 0,0
20.10.2017 06:00:00 11,7 8,8 6 3 17 9 SSW 0,0
20.10.2017 05:00:00 11,7 8,4 10 6 18 10 SSW 0,0
20.10.2017 04:00:00 12,0 8,5 5 3 17 9 SSW 0,0
20.10.2017 03:00:00 11,7 8,4 8 4 19 11 SW 0,0
20.10.2017 02:00:00 9,5 7,6 3 2 6 4 SW -
20.10.2017 01:00:00 8,4 6,5 0 0 6 3 N 0,0
20.10.2017 00:00:00 8,6 6,2 0 0 0 0 N 0,0
19.10.2017 23:00:00 9,5 6,7 0 0 3 2 N 0,0
19.10.2017 22:00:00 9,2 5,8 0 0 4 2 N 0,0
19.10.2017 21:00:00 11,0 4,6 0 0 13 7 SW 0,0
19.10.2017 20:00:00 13,8 4,1 9 5 22 12 SW -
19.10.2017 19:00:00 14,9 3,0 12 6 26 14 SW 0,0
19.10.2017 18:00:00 15,8 1,5 13 7 32 17 SW 0,0
19.10.2017 17:00:00 17,3 2,1 15 8 34 18 SW 0,0
19.10.2017 16:00:00 16,6 5,5 11 6 27 15 SSW 0,0
19.10.2017 15:00:00 14,3 5,6 11 6 23 13 S 0,0
19.10.2017 14:00:00 13,9 5,5 10 5 24 13 SSW -
19.10.2017 13:00:00 14,5 6,4 9 5 21 11 SSW 0,0
19.10.2017 12:00:00 11,6 6,5 8 5 16 9 SSW 0,0
19.10.2017 11:00:00 8,9 8,1 4 2 8 4 SSW 0,0
19.10.2017 10:00:00 6,3 5,8 0 0 5 3 SW 0,0
19.10.2017 09:00:00 5,2 4,6 0 0 0 0 N 0,0
19.10.2017 08:00:00 6,1 5,3 0 0 0 0 N -
19.10.2017 07:00:00 7,1 6,4 0 0 0 0 N 0,0
19.10.2017 06:00:00 7,8 7,0 0 0 0 0 N 0,0
19.10.2017 05:00:00 8,5 7,7 0 0 5 3 N 0,0
19.10.2017 04:00:00 8,5 7,7 2 1 6 3 WSW 0,0
19.10.2017 03:00:00 8,5 7,7 0 0 3 2 NE 0,0
19.10.2017 02:00:00 8,5 7,7 0 0 6 3 N -
19.10.2017 01:00:00 8,7 8,0 0 0 0 0 N 0,1
19.10.2017 00:00:00 8,9 8,1 0 0 3 2 ENE 0,0
18.10.2017 23:00:00 8,8 8,0 0 0 0 0 N 0,1
18.10.2017 22:00:00 9,1 8,1 0 0 6 3 NE 0,1
18.10.2017 21:00:00 9,4 8,5 2 1 14 8 E 2,1
18.10.2017 20:00:00 10,4 9,0 8 4 20 11 NE -
18.10.2017 19:00:00 12,6 7,7 5 3 15 8 NNE 0,0
18.10.2017 18:00:00 14,0 6,4 1 1 8 4 SW 0,0
18.10.2017 17:00:00 13,7 6,2 5 3 18 10 SW 0,0
18.10.2017 16:00:00 13,9 7,7 8 4 18 10 WSW 0,0
18.10.2017 15:00:00 13,1 9,2 5 3 15 8 WSW 0,1
18.10.2017 14:00:00 12,4 7,8 9 5 22 12 SSW -
18.10.2017 13:00:00 13,3 7,6 10 5 19 11 SSW 0,0
18.10.2017 12:00:00 12,4 7,8 10 5 24 13 SSW 0,0
18.10.2017 11:00:00 11,5 7,8 7 4 14 8 SW 0,0
18.10.2017 10:00:00 10,1 7,8 6 3 11 6 WSW 0,0
18.10.2017 09:00:00 8,3 7,6 0 0 2 1 N 0,0
18.10.2017 08:00:00 8,3 7,4 0 0 3 2 NNW -
18.10.2017 07:00:00 7,9 7,0 0 0 4 2 N 0,0
18.10.2017 06:00:00 8,0 7,0 1 0 4 2 N 0,0
18.10.2017 05:00:00 9,0 7,6 1 0 4 2 NNW 0,0
18.10.2017 04:00:00 9,8 7,7 0 0 15 8 N 0,0
18.10.2017 03:00:00 11,4 7,7 5 3 20 11 WSW 0,0
18.10.2017 02:00:00 12,4 8,9 10 5 19 10 SW -
18.10.2017 01:00:00 13,0 10,4 8 4 18 10 SW 0,0
18.10.2017 00:00:00 13,9 11,1 9 5 22 12 SSW 0,0
17.10.2017 23:00:00 14,0 12,4 9 5 25 13 SW 0,9
17.10.2017 22:00:00 15,5 11,1 7 4 22 12 SSW 0,3
17.10.2017 21:00:00 16,3 9,9 7 4 20 11 SSW 0,0
17.10.2017 20:00:00 16,5 10,3 8 4 19 11 SSW -
17.10.2017 19:00:00 16,7 11,0 4 2 24 13 SSW 0,0
17.10.2017 18:00:00 16,9 10,8 9 5 26 14 S 0,0
17.10.2017 17:00:00 17,8 9,7 15 8 36 19 SW 0,0
17.10.2017 16:00:00 20,1 8,1 14 7 30 16 SSW 0,0
17.10.2017 15:00:00 17,6 10,2 7 4 36 20 SSW 0,0
17.10.2017 14:00:00 20,1 6,1 16 9 38 21 SSW -
17.10.2017 13:00:00 20,6 7,3 9 5 25 14 SSW 0,0
17.10.2017 12:00:00 17,7 7,7 7 4 21 11 S 0,0
17.10.2017 11:00:00 16,6 8,0 6 4 28 15 S 0,0
17.10.2017 10:00:00 15,0 8,7 9 5 23 12 SSW 0,0
17.10.2017 09:00:00 13,4 8,4 2 1 18 10 N 0,0
17.10.2017 08:00:00 13,6 8,4 4 2 14 8 W -
17.10.2017 07:00:00 13,1 8,8 1 1 11 6 WNW 0,0
17.10.2017 06:00:00 8,6 7,7 3 2 12 6 WSW 0,0
17.10.2017 05:00:00 8,2 7,3 1 0 7 4 NE 0,0
17.10.2017 04:00:00 8,8 7,7 1 0 8 4 SSE 0,0
17.10.2017 03:00:00 9,3 8,3 0 0 6 3 S 0,0
17.10.2017 02:00:00 10,5 9,3 0 0 6 4 NE -
17.10.2017 01:00:00 11,9 9,9 0 0 7 4 N 0,0
17.10.2017 00:00:00 14,0 10,0 3 1 9 5 WSW 0,0
16.10.2017 23:00:00 16,9 10,3 0 0 14 8 ENE 0,0
16.10.2017 22:00:00 17,6 9,9 1 1 16 8 NE 0,0
16.10.2017 21:00:00 18,8 8,8 4 2 13 7 NE 0,0
16.10.2017 20:00:00 19,9 8,3 1 1 24 13 NE -
16.10.2017 19:00:00 22,9 8,9 9 5 27 14 SE 0,0
16.10.2017 18:00:00 27,0 6,4 5 3 25 13 S 0,0
16.10.2017 17:00:00 26,5 4,8 11 6 29 16 SSW 0,0
16.10.2017 16:00:00 27,2 6,1 13 7 27 14 SSW 0,0
16.10.2017 15:00:00 26,8 6,7 9 5 26 14 SSW 0,0
16.10.2017 14:00:00 26,1 8,1 9 5 25 14 SSW -
16.10.2017 13:00:00 23,8 10,2 5 3 15 8 S 0,0
16.10.2017 12:00:00 20,6 11,0 1 0 8 4 SSW 0,0
16.10.2017 11:00:00 18,4 11,0 5 3 12 6 SW 0,0
16.10.2017 10:00:00 16,2 10,9 6 4 18 10 SW 0,0
16.10.2017 09:00:00 12,9 10,0 0 0 13 7 N 0,0
16.10.2017 08:00:00 14,1 9,3 5 3 22 12 SW -
16.10.2017 07:00:00 16,0 9,7 4 2 27 15 WSW 0,0
16.10.2017 06:00:00 15,6 9,7 5 3 32 17 SW 0,0
16.10.2017 05:00:00 15,5 9,4 2 1 22 12 NW 0,0
16.10.2017 04:00:00 17,3 9,9 10 5 22 12 SSW 0,0
16.10.2017 03:00:00 17,1 10,4 8 4 24 13 SSW 0,0
16.10.2017 02:00:00 16,1 10,9 4 2 16 8 WSW -
16.10.2017 01:00:00 15,8 11,2 1 0 16 9 WSW 0,0
16.10.2017 00:00:00 15,9 11,4 3 1 16 9 WNW 0,0
15.10.2017 23:00:00 18,3 12,3 7 4 25 14 E 0,0
15.10.2017 22:00:00 17,6 11,2 1 0 21 12 ESE 0,0
15.10.2017 21:00:00 18,5 9,8 0 0 18 10 NE 0,0
15.10.2017 20:00:00 21,5 10,0 1 1 12 7 E -
15.10.2017 19:00:00 24,8 8,7 4 2 21 11 SSE 0,0
15.10.2017 18:00:00 28,1 6,8 8 4 23 12 SE 0,0
15.10.2017 17:00:00 29,2 5,9 9 5 20 11 SW 0,0
15.10.2017 16:00:00 29,0 6,4 6 4 18 10 SW 0,0
15.10.2017 15:00:00 27,6 9,9 1 1 8 4 NNE 0,0
15.10.2017 14:00:00 23,4 9,4 1 1 8 5 SW -
15.10.2017 13:00:00 20,2 9,2 1 1 11 6 SSW 0,0
15.10.2017 12:00:00 19,5 10,2 3 2 9 5 SSW 0,0
15.10.2017 11:00:00 15,3 8,8 2 1 5 3 E 0,0
15.10.2017 10:00:00 10,0 6,7 0 0 6 3 NNE 0,0

tt = Température de l'air
td = dewpoint
ff = Vitesse du vent
fx = gusts
dd = Direction du vent
rr = Quantités de précipitations

stations d'obs. à proximité